createdAt,value
2022-08-22T00:00:20.726Z,19.07
2022-08-22T00:02:47.979Z,21.41
2022-08-22T00:02:48.505Z,20.97
2022-08-22T00:02:54.108Z,20.15
2022-08-22T00:03:06.814Z,19.30
2022-08-22T00:05:56.044Z,19.00
2022-08-22T00:08:32.061Z,18.97
2022-08-22T00:11:12.331Z,18.95
2022-08-22T00:14:01.103Z,18.92
2022-08-22T00:16:54.612Z,18.86
2022-08-22T00:19:45.183Z,18.82
2022-08-22T00:22:28.670Z,18.80
2022-08-22T00:25:07.242Z,18.78
2022-08-22T00:28:06.363Z,18.78
2022-08-22T00:30:42.437Z,18.77
2022-08-22T00:33:29.072Z,18.77
2022-08-22T00:36:13.379Z,18.79
2022-08-22T00:38:49.020Z,18.80
2022-08-22T00:41:35.593Z,18.80
2022-08-22T00:44:17.274Z,18.80
2022-08-22T00:47:03.541Z,18.78
2022-08-22T00:49:51.148Z,18.79
2022-08-22T00:52:41.483Z,18.79
2022-08-22T00:55:41.057Z,18.78
2022-08-22T00:58:28.386Z,18.76
2022-08-22T01:01:03.493Z,18.74
2022-08-22T01:04:07.156Z,18.73
2022-08-22T01:06:49.551Z,18.70
2022-08-22T01:09:32.918Z,18.69
2022-08-22T01:12:32.323Z,18.69
2022-08-22T01:15:05.453Z,18.69
2022-08-22T01:17:44.275Z,18.66
2022-08-22T01:20:47.588Z,18.64
2022-08-22T01:23:40.558Z,18.59
2022-08-22T01:26:41.778Z,18.55
2022-08-22T01:29:28.512Z,18.53
2022-08-22T01:32:15.060Z,18.51
2022-08-22T01:34:56.401Z,18.51
2022-08-22T01:37:45.974Z,18.48
2022-08-22T01:40:25.685Z,18.45
2022-08-22T01:43:20.239Z,18.41
2022-08-22T01:46:06.795Z,18.41
2022-08-22T01:48:49.189Z,18.39
2022-08-22T01:51:45.808Z,18.36
2022-08-22T01:54:31.384Z,18.33
2022-08-22T01:57:03.183Z,18.30
2022-08-22T01:59:48.019Z,18.28
2022-08-22T02:02:23.720Z,18.27
2022-08-22T02:05:11.656Z,18.24
2022-08-22T02:08:21.745Z,18.17
2022-08-22T02:11:20.547Z,18.12
2022-08-22T02:14:13.433Z,18.10
2022-08-22T02:16:48.223Z,18.05
2022-08-22T02:19:15.626Z,18.04
2022-08-22T02:21:58.694Z,18.01
2022-08-22T02:24:38.177Z,17.99
2022-08-22T02:27:22.891Z,17.92
2022-08-22T02:30:14.725Z,17.85
2022-08-22T02:32:42.074Z,17.80
2022-08-22T02:35:26.598Z,17.76
2022-08-22T02:37:57.492Z,17.75
2022-08-22T02:40:32.366Z,17.74
2022-08-22T02:43:02.553Z,17.71
2022-08-22T02:45:50.947Z,17.66
2022-08-22T02:48:34.118Z,17.61
2022-08-22T02:51:33.839Z,17.61
2022-08-22T02:54:18.252Z,17.64
2022-08-22T02:57:06.865Z,17.63
2022-08-22T03:00:01.910Z,17.63
2022-08-22T03:02:38.651Z,17.64
2022-08-22T03:05:38.167Z,17.63
2022-08-22T03:08:12.981Z,17.64
2022-08-22T03:11:10.579Z,17.65
2022-08-22T03:13:41.246Z,17.64
2022-08-22T03:16:24.646Z,17.63
2022-08-22T03:19:08.405Z,17.63
2022-08-22T03:21:52.196Z,17.65
2022-08-22T03:24:26.632Z,17.65
2022-08-22T03:27:10.568Z,17.67
2022-08-22T03:29:45.846Z,17.70
2022-08-22T03:32:22.879Z,17.72
2022-08-22T03:35:01.904Z,17.72
2022-08-22T03:37:40.427Z,17.75
2022-08-22T03:40:31.484Z,17.78
2022-08-22T03:43:31.547Z,17.80
2022-08-22T03:46:28.302Z,17.82
2022-08-22T03:49:12.286Z,17.85
2022-08-22T03:51:58.487Z,17.89
2022-08-22T03:54:57.990Z,17.91
2022-08-22T03:57:31.414Z,17.93
2022-08-22T04:00:20.715Z,17.97
2022-08-22T04:03:04.869Z,18.01
2022-08-22T04:06:12.838Z,18.02
2022-08-22T04:08:58.620Z,18.02
2022-08-22T04:12:00.458Z,18.04
2022-08-22T04:14:59.524Z,18.09
2022-08-22T04:17:51.542Z,18.13
2022-08-22T04:20:42.358Z,18.17
2022-08-22T04:23:41.805Z,18.20
2022-08-22T04:26:17.304Z,18.24
2022-08-22T04:29:09.206Z,18.26
2022-08-22T04:31:46.335Z,18.29
2022-08-22T04:34:26.172Z,18.29
2022-08-22T04:37:04.341Z,18.31
2022-08-22T04:39:38.728Z,18.36
2022-08-22T04:42:36.681Z,18.42
2022-08-22T04:45:27.325Z,18.46
2022-08-22T04:48:00.412Z,18.50
2022-08-22T04:50:41.213Z,18.49
2022-08-22T04:53:10.575Z,18.49
2022-08-22T04:56:10.046Z,18.49
2022-08-22T04:58:58.275Z,18.50
2022-08-22T05:01:39.668Z,18.54
2022-08-22T05:04:25.461Z,18.58
2022-08-22T05:07:10.926Z,18.61
2022-08-22T05:09:44.589Z,18.67
2022-08-22T05:12:19.864Z,18.70
2022-08-22T05:14:54.509Z,18.73
2022-08-22T05:17:26.776Z,18.75
2022-08-22T05:20:00.347Z,18.76
2022-08-22T05:22:32.028Z,18.78
2022-08-22T05:25:05.154Z,18.82
2022-08-22T05:27:40.870Z,18.84
2022-08-22T05:30:15.971Z,18.88
2022-08-22T05:33:13.319Z,18.92
2022-08-22T05:35:58.251Z,18.96
2022-08-22T05:38:31.509Z,18.99
2022-08-22T05:41:18.319Z,19.02
2022-08-22T05:43:48.799Z,19.08
2022-08-22T05:46:27.135Z,19.15
2022-08-22T05:48:59.724Z,19.22
2022-08-22T05:51:38.310Z,19.28
2022-08-22T05:54:19.700Z,19.34
2022-08-22T05:56:54.735Z,19.37
2022-08-22T05:59:27.705Z,19.38
2022-08-22T06:02:13.813Z,19.41
2022-08-22T06:04:47.099Z,19.47
2022-08-22T06:07:16.878Z,19.52
2022-08-22T06:09:47.036Z,19.55
2022-08-22T06:12:27.925Z,19.60
2022-08-22T06:15:20.834Z,19.62
2022-08-22T06:17:55.279Z,19.65
2022-08-22T06:20:39.529Z,19.67
2022-08-22T06:23:08.912Z,19.70
2022-08-22T06:25:40.201Z,19.76
2022-08-22T06:28:11.516Z,19.80
2022-08-22T06:30:40.000Z,19.82
2022-08-22T06:33:12.592Z,19.81
2022-08-22T06:36:00.641Z,19.80
2022-08-22T06:38:35.480Z,19.76
2022-08-22T06:41:09.216Z,19.79
2022-08-22T06:43:43.168Z,19.83
2022-08-22T06:46:14.829Z,19.90
2022-08-22T06:48:44.542Z,20.00
2022-08-22T06:51:15.296Z,20.11
2022-08-22T06:53:48.457Z,20.24
2022-08-22T06:56:36.178Z,20.36
2022-08-22T06:59:11.966Z,20.50
2022-08-22T07:02:03.571Z,20.64
2022-08-22T07:04:31.602Z,20.76
2022-08-22T07:07:01.210Z,20.86
2022-08-22T07:09:37.093Z,20.91
2022-08-22T07:12:13.915Z,20.97
2022-08-22T07:14:44.982Z,21.01
2022-08-22T07:17:27.089Z,21.06
2022-08-22T07:20:26.767Z,21.06
2022-08-22T07:23:06.482Z,21.08
2022-08-22T07:25:59.727Z,21.09
2022-08-22T07:28:58.433Z,21.07
2022-08-22T07:31:37.309Z,21.02
2022-08-22T07:34:21.904Z,20.98
2022-08-22T07:37:10.881Z,20.95
2022-08-22T07:39:53.781Z,20.93
2022-08-22T07:42:36.248Z,20.95
2022-08-22T07:45:16.032Z,20.98
2022-08-22T07:47:52.578Z,20.97
2022-08-22T07:50:26.724Z,20.98
2022-08-22T07:53:13.506Z,21.00
2022-08-22T07:55:49.755Z,21.01
2022-08-22T07:58:19.822Z,21.03
2022-08-22T08:00:49.089Z,21.07
2022-08-22T08:03:20.622Z,21.08
2022-08-22T08:05:48.996Z,21.09
2022-08-22T08:08:36.259Z,21.09
2022-08-22T08:11:05.197Z,21.11
2022-08-22T08:13:42.639Z,21.14
2022-08-22T08:16:17.766Z,21.20
2022-08-22T08:18:48.411Z,21.27
2022-08-22T08:21:36.094Z,21.30
2022-08-22T08:24:07.823Z,21.37
2022-08-22T08:27:03.383Z,21.40
2022-08-22T08:29:32.241Z,21.40
2022-08-22T08:32:01.660Z,21.38
2022-08-22T08:34:34.701Z,21.37
2022-08-22T08:37:35.010Z,21.43
2022-08-22T08:40:18.646Z,21.55
2022-08-22T08:43:33.712Z,21.63
2022-08-22T08:46:27.877Z,21.72
2022-08-22T08:49:11.374Z,21.82
2022-08-22T08:51:57.702Z,21.94
2022-08-22T08:54:55.484Z,22.04
2022-08-22T08:57:37.842Z,22.15
2022-08-22T09:00:17.276Z,22.19
2022-08-22T09:03:01.227Z,22.26
2022-08-22T09:05:50.673Z,22.35
2022-08-22T09:08:42.349Z,22.44
2022-08-22T09:11:28.294Z,22.47
2022-08-22T09:14:27.283Z,22.52
2022-08-22T09:17:27.559Z,22.61
2022-08-22T09:20:17.868Z,22.69
2022-08-22T09:23:17.065Z,22.77
2022-08-22T09:25:50.907Z,22.83
2022-08-22T09:28:38.641Z,22.87
2022-08-22T09:31:16.898Z,22.90
2022-08-22T09:34:08.537Z,22.93
2022-08-22T09:36:45.219Z,22.94
2022-08-22T09:39:43.041Z,22.94
2022-08-22T09:42:29.657Z,22.94
2022-08-22T09:45:39.641Z,22.95
2022-08-22T09:48:23.853Z,22.98
2022-08-22T09:51:31.222Z,23.06
2022-08-22T09:54:32.885Z,23.19
2022-08-22T09:57:17.506Z,23.35
2022-08-22T09:59:58.171Z,23.44
2022-08-22T10:02:43.243Z,23.55
2022-08-22T10:05:41.063Z,23.65
2022-08-22T10:08:19.822Z,23.75
2022-08-22T10:11:19.843Z,23.76
2022-08-22T10:14:02.484Z,23.75
2022-08-22T10:17:07.401Z,23.75
2022-08-22T10:19:43.924Z,23.80
2022-08-22T10:22:44.715Z,23.86
2022-08-22T10:25:14.986Z,23.97
2022-08-22T10:28:05.015Z,24.09
2022-08-22T10:30:45.705Z,24.31
2022-08-22T10:33:31.648Z,24.77
2022-08-22T10:36:27.842Z,25.31
2022-08-22T10:38:59.344Z,25.98
2022-08-22T10:41:51.229Z,26.23
2022-08-22T10:44:38.539Z,26.31
2022-08-22T10:47:15.807Z,26.19
2022-08-22T10:49:53.424Z,26.01
2022-08-22T10:52:31.772Z,25.85
2022-08-22T10:55:14.170Z,25.75
2022-08-22T10:58:14.852Z,25.73
2022-08-22T11:00:52.634Z,25.77
2022-08-22T11:03:27.503Z,25.74
2022-08-22T11:06:01.411Z,25.76
2022-08-22T11:08:53.777Z,25.74
2022-08-22T11:11:37.171Z,25.67
2022-08-22T11:14:37.819Z,25.79
2022-08-22T11:17:30.273Z,25.94
2022-08-22T11:20:20.542Z,25.93
2022-08-22T11:23:16.398Z,25.80
2022-08-22T11:25:56.723Z,25.69
2022-08-22T11:28:44.608Z,25.67
2022-08-22T11:31:47.208Z,25.66
2022-08-22T11:34:34.490Z,25.64
2022-08-22T11:37:23.994Z,25.66
2022-08-22T11:40:41.913Z,25.75
2022-08-22T11:43:43.435Z,25.88
2022-08-22T11:46:19.926Z,26.10
2022-08-22T11:48:59.648Z,26.51
2022-08-22T11:52:00.843Z,27.34
2022-08-22T11:54:39.396Z,28.27
2022-08-22T11:57:28.687Z,28.48
2022-08-22T12:00:20.719Z,28.43
2022-08-22T12:03:12.561Z,28.25
2022-08-22T12:06:13.077Z,28.33
2022-08-22T12:08:51.711Z,28.71
2022-08-22T12:11:39.092Z,29.06
2022-08-22T12:14:18.039Z,29.41
2022-08-22T12:17:50.567Z,29.74
2022-08-22T12:20:25.141Z,29.76
2022-08-22T12:23:43.468Z,29.62
2022-08-22T12:26:35.137Z,29.34
2022-08-22T12:29:27.446Z,28.93
2022-08-22T12:32:27.418Z,28.57
2022-08-22T12:35:29.879Z,28.40
2022-08-22T12:38:29.411Z,28.38
2022-08-22T12:41:28.053Z,28.47
2022-08-22T12:44:34.524Z,28.41
2022-08-22T12:47:34.417Z,28.26
2022-08-22T12:50:38.373Z,28.08
2022-08-22T12:53:44.630Z,27.87
2022-08-22T12:56:18.268Z,27.61
2022-08-22T12:59:17.705Z,27.45
2022-08-22T13:01:49.599Z,27.36
2022-08-22T13:04:33.331Z,27.41
2022-08-22T13:07:33.638Z,27.51
2022-08-22T13:10:23.574Z,27.62
2022-08-22T13:12:56.776Z,27.52
2022-08-22T13:15:29.070Z,27.29
2022-08-22T13:18:18.944Z,27.06
2022-08-22T13:20:51.844Z,26.85
2022-08-22T13:23:30.604Z,26.67
2022-08-22T13:26:07.689Z,26.53
2022-08-22T13:28:45.633Z,26.44
2022-08-22T13:31:28.848Z,26.34
2022-08-22T13:34:39.961Z,26.31
2022-08-22T13:37:14.896Z,26.31
2022-08-22T13:39:49.088Z,26.39
2022-08-22T13:42:29.870Z,26.50
2022-08-22T13:45:05.328Z,26.64
2022-08-22T13:47:39.882Z,26.72
2022-08-22T13:50:20.593Z,26.70
2022-08-22T13:52:56.744Z,26.60
2022-08-22T13:55:42.963Z,26.50
2022-08-22T13:58:11.450Z,26.39
2022-08-22T14:01:01.363Z,26.32
2022-08-22T14:03:39.060Z,26.30
2022-08-22T14:06:35.206Z,26.38
2022-08-22T14:09:31.977Z,26.55
2022-08-22T14:12:24.351Z,26.76
2022-08-22T14:15:09.462Z,26.85
2022-08-22T14:17:44.627Z,26.82
2022-08-22T14:20:32.532Z,26.70
2022-08-22T14:23:10.327Z,26.51
2022-08-22T14:25:41.687Z,26.39
2022-08-22T14:28:27.522Z,26.28
2022-08-22T14:31:14.186Z,26.14
2022-08-22T14:33:49.039Z,26.01
2022-08-22T14:36:24.557Z,25.92
2022-08-22T14:39:10.040Z,25.76
2022-08-22T14:41:56.523Z,25.61
2022-08-22T14:44:35.961Z,25.51
2022-08-22T14:47:34.527Z,25.45
2022-08-22T14:50:09.480Z,25.42
2022-08-22T14:52:43.281Z,25.32
2022-08-22T14:55:15.546Z,25.21
2022-08-22T14:57:49.392Z,25.15
2022-08-22T15:00:41.527Z,25.78
2022-08-22T15:03:14.340Z,27.17
2022-08-22T15:06:05.897Z,28.51
2022-08-22T15:08:47.839Z,29.95
2022-08-22T15:11:47.235Z,31.16
2022-08-22T15:14:29.721Z,32.38
2022-08-22T15:17:01.452Z,32.67
2022-08-22T15:19:47.967Z,32.88
2022-08-22T15:22:27.671Z,33.55
2022-08-22T15:25:02.826Z,34.20
2022-08-22T15:27:35.926Z,34.25
2022-08-22T15:30:20.399Z,34.22
2022-08-22T15:32:49.222Z,34.51
2022-08-22T15:35:30.096Z,34.87
2022-08-22T15:38:26.335Z,35.09
2022-08-22T15:41:16.546Z,35.34
2022-08-22T15:43:49.250Z,35.09
2022-08-22T15:46:25.821Z,35.17
2022-08-22T15:49:05.380Z,35.16
2022-08-22T15:51:50.308Z,34.52
2022-08-22T15:54:24.804Z,33.54
2022-08-22T15:56:53.719Z,32.58
2022-08-22T15:59:54.306Z,32.05
2022-08-22T16:02:53.031Z,32.20
2022-08-22T16:05:26.080Z,32.64
2022-08-22T16:08:11.911Z,32.97
2022-08-22T16:10:43.110Z,33.41
2022-08-22T16:13:26.543Z,33.84
2022-08-22T16:15:57.414Z,33.68
2022-08-22T16:18:42.407Z,33.08
2022-08-22T16:21:31.455Z,32.40
2022-08-22T16:23:58.981Z,32.31
2022-08-22T16:26:29.270Z,32.33
2022-08-22T16:28:59.492Z,32.26
2022-08-22T16:31:43.078Z,32.36
2022-08-22T16:34:16.259Z,32.52
2022-08-22T16:37:10.300Z,32.59
2022-08-22T16:39:56.000Z,32.53
2022-08-22T16:42:27.548Z,32.30
2022-08-22T16:44:54.937Z,32.16
2022-08-22T16:47:41.585Z,32.04
2022-08-22T16:50:30.244Z,31.83
2022-08-22T16:53:04.535Z,31.57
2022-08-22T16:55:35.717Z,31.34
2022-08-22T16:58:32.458Z,31.08
2022-08-22T17:01:23.799Z,30.70
2022-08-22T17:04:07.997Z,30.28
2022-08-22T17:06:57.737Z,29.85
2022-08-22T17:09:53.980Z,29.47
2022-08-22T17:12:40.586Z,29.05
2022-08-22T17:15:39.985Z,28.46
2022-08-22T17:18:13.381Z,27.77
2022-08-22T17:20:49.443Z,27.24
2022-08-22T17:23:48.851Z,26.72
2022-08-22T17:26:28.608Z,26.20
2022-08-22T17:29:11.044Z,25.73
2022-08-22T17:31:53.504Z,25.31
2022-08-22T17:34:52.910Z,24.92
2022-08-22T17:37:22.945Z,24.56
2022-08-22T17:40:07.440Z,24.26
2022-08-22T17:42:49.385Z,23.98
2022-08-22T17:45:35.651Z,23.71
2022-08-22T17:48:24.755Z,23.48
2022-08-22T17:50:57.980Z,23.28
2022-08-22T17:53:45.147Z,23.09
2022-08-22T17:56:33.777Z,22.90
2022-08-22T17:59:09.422Z,22.72
2022-08-22T18:01:44.335Z,22.57
2022-08-22T18:04:47.402Z,22.41
2022-08-22T18:07:29.985Z,22.28
2022-08-22T18:10:14.476Z,22.16
2022-08-22T18:13:07.067Z,22.03
2022-08-22T18:15:47.874Z,21.92
2022-08-22T18:18:38.346Z,21.84
2022-08-22T18:21:18.393Z,21.74
2022-08-22T18:24:00.527Z,21.64
2022-08-22T18:26:51.605Z,21.56
2022-08-22T18:29:31.418Z,21.48
2022-08-22T18:32:12.489Z,21.42
2022-08-22T18:34:46.147Z,21.39
2022-08-22T18:37:41.733Z,21.36
2022-08-22T18:40:25.897Z,21.33
2022-08-22T18:43:25.927Z,21.29
2022-08-22T18:46:02.830Z,21.26
2022-08-22T18:49:12.073Z,21.23
2022-08-22T18:51:38.174Z,21.20
2022-08-22T18:54:06.831Z,21.19
2022-08-22T18:56:37.567Z,21.18
2022-08-22T18:59:08.099Z,21.17
2022-08-22T19:01:56.423Z,21.15
2022-08-22T19:04:40.180Z,21.13
2022-08-22T19:07:40.331Z,21.09
2022-08-22T19:10:16.931Z,21.08
2022-08-22T19:12:51.301Z,21.07
2022-08-22T19:15:33.576Z,21.05
2022-08-22T19:18:04.168Z,21.04
2022-08-22T19:20:55.009Z,21.02
2022-08-22T19:23:43.626Z,21.00
2022-08-22T19:26:30.197Z,20.97
2022-08-22T19:29:24.168Z,20.94
2022-08-22T19:31:59.064Z,20.94
2022-08-22T19:34:28.597Z,20.94
2022-08-22T19:37:32.135Z,20.95
2022-08-22T19:40:11.850Z,20.95
2022-08-22T19:42:43.024Z,20.94
2022-08-22T19:45:19.468Z,20.93
2022-08-22T19:47:59.761Z,20.92
2022-08-22T19:50:35.487Z,20.91
2022-08-22T19:53:24.535Z,20.89
2022-08-22T19:55:58.387Z,20.84
2022-08-22T19:59:00.618Z,20.82
2022-08-22T20:01:40.451Z,20.84
2022-08-22T20:04:11.058Z,20.82
2022-08-22T20:06:51.597Z,20.80
2022-08-22T20:09:51.040Z,20.79
2022-08-22T20:12:29.908Z,20.76
2022-08-22T20:14:57.673Z,20.76
2022-08-22T20:17:25.070Z,20.75
2022-08-22T20:20:29.743Z,20.75
2022-08-22T20:23:11.092Z,20.74
2022-08-22T20:25:49.499Z,20.73
2022-08-22T20:28:40.186Z,20.72
2022-08-22T20:31:18.992Z,20.69
2022-08-22T20:33:51.245Z,20.68
2022-08-22T20:36:27.626Z,20.67
2022-08-22T20:39:09.133Z,20.67
2022-08-22T20:41:49.811Z,20.66
2022-08-22T20:44:22.532Z,20.63
2022-08-22T20:47:08.486Z,20.61
2022-08-22T20:49:45.629Z,20.60
2022-08-22T20:52:31.646Z,20.57
2022-08-22T20:55:08.223Z,20.55
2022-08-22T20:57:45.923Z,20.52
2022-08-22T21:00:18.989Z,20.50
2022-08-22T21:02:56.804Z,20.50
2022-08-22T21:05:32.788Z,20.51
2022-08-22T21:08:15.399Z,20.50
2022-08-22T21:10:58.817Z,20.47
2022-08-22T21:13:36.386Z,20.46
2022-08-22T21:16:35.803Z,20.46
2022-08-22T21:19:03.317Z,20.44
2022-08-22T21:21:33.816Z,20.43
2022-08-22T21:24:06.678Z,20.42
2022-08-22T21:26:38.713Z,20.40
2022-08-22T21:29:08.787Z,20.40
2022-08-22T21:31:48.593Z,20.38
2022-08-22T21:34:33.962Z,20.36
2022-08-22T21:37:12.782Z,20.36
2022-08-22T21:39:50.137Z,20.35
2022-08-22T21:42:38.616Z,20.34
2022-08-22T21:45:28.033Z,20.33
2022-08-22T21:47:56.497Z,20.30
2022-08-22T21:50:23.929Z,20.26
2022-08-22T21:52:54.297Z,20.21
2022-08-22T21:55:21.695Z,20.16
2022-08-22T21:58:07.322Z,20.12
2022-08-22T22:00:59.011Z,20.09
2022-08-22T22:03:34.427Z,20.03
2022-08-22T22:06:05.297Z,19.97
2022-08-22T22:08:33.545Z,19.93
2022-08-22T22:11:06.210Z,19.90
2022-08-22T22:13:36.253Z,19.88
2022-08-22T22:16:06.713Z,19.87
2022-08-22T22:18:35.857Z,19.84
2022-08-22T22:21:03.751Z,19.82
2022-08-22T22:23:31.511Z,19.81
2022-08-22T22:26:03.036Z,19.79
2022-08-22T22:28:34.701Z,19.75
2022-08-22T22:31:03.486Z,19.71
2022-08-22T22:33:34.554Z,19.70
2022-08-22T22:36:18.591Z,19.68
2022-08-22T22:38:47.033Z,19.67
2022-08-22T22:41:14.590Z,19.66
2022-08-22T22:43:42.923Z,19.65
2022-08-22T22:46:10.499Z,19.63
2022-08-22T22:48:38.004Z,19.59
2022-08-22T22:51:11.133Z,19.56
2022-08-22T22:53:40.362Z,19.53
2022-08-22T22:56:22.210Z,19.51
2022-08-22T22:58:59.222Z,19.50
2022-08-22T23:02:02.462Z,19.47
2022-08-22T23:04:31.131Z,19.44
2022-08-22T23:06:58.682Z,19.43
2022-08-22T23:09:28.246Z,19.40
2022-08-22T23:12:06.743Z,19.38
2022-08-22T23:14:35.424Z,19.36
2022-08-22T23:17:03.603Z,19.34
2022-08-22T23:19:31.589Z,19.33
2022-08-22T23:22:00.940Z,19.32
2022-08-22T23:24:31.109Z,19.31
2022-08-22T23:26:59.893Z,19.30
2022-08-22T23:29:27.928Z,19.28
2022-08-22T23:31:59.077Z,19.25
2022-08-22T23:34:30.134Z,19.23
2022-08-22T23:37:01.894Z,19.23
2022-08-22T23:39:32.662Z,19.22
2022-08-22T23:42:02.161Z,19.22
2022-08-22T23:44:32.884Z,19.21
2022-08-22T23:47:00.681Z,19.20
2022-08-22T23:49:29.304Z,19.18
2022-08-22T23:51:57.965Z,19.16
2022-08-22T23:54:25.853Z,19.15
2022-08-22T23:56:56.329Z,19.15
2022-08-22T23:59:30.573Z,19.15
